Terminal Aerodrome Forecast
Issued by NWS

Home | Current Version | Previous Version | Graphics & Text | Print | Product List | Glossary On
Versions: 1 2 3 4 5 6 7 8 9 10 11 12 13
000
FTUS43 KBIS 221100
TAFDIK
TAF
KDIK 221137Z 2212/2312 20012KT P6SM SCT150
     FM221800 21015KT P6SM VCSH SCT040 SCT080 BKN150
     FM230300 25016KT P6SM VCSH SCT035 BKN070 OVC150
     FM230900 27021G28KT 6SM -SN BLSN SCT020 OVC030=

USA.gov is the U.S. government's official web portal to all federal, state and local government web resources and services.